Terminal Aerodrome Forecast
Issued by NWS

Home | Current Version | Previous Version | Text Only | Print | Product List | Glossary On
Versions: 1 2 3 4 5 6 7 8 9 10 11 12 13 14 15 16 17 18 19 20 21 22 23 24 25 26 27
000
FTUS43 KMKX 250025 AAA
TAFUES
TAF AMD
KUES 250025Z 2500/2524 10012G19KT 3SM -DZ BR OVC007
     FM250400 13013G22KT 3SM SHRA BR OVC003 WS020/15045KT
     FM250500 16011G20KT 2SM -SHRA BR VCTS OVC003CB WS020/18040KT
     FM250700 20012G22KT 4SM -RA BR OVC006
     FM250900 25017G33KT P6SM OVC020
     FM251200 25018G35KT P6SM BKN035
     FM251700 25017G31KT P6SM FEW250=

USA.gov is the U.S. government's official web portal to all federal, state and local government web resources and services.